sensor_id;sensor_type;location;lat;lon;timestamp;temperature;humidity
55064;DHT22;40963;52.168;21.296;2023-11-19T00:01:49;0.30;99.90
55064;DHT22;40963;52.168;21.296;2023-11-19T00:04:14;0.30;99.90
55064;DHT22;40963;52.168;21.296;2023-11-19T00:06:40;0.30;99.90
55064;DHT22;40963;52.168;21.296;2023-11-19T00:09:06;0.30;99.90
55064;DHT22;40963;52.168;21.296;2023-11-19T00:11:33;0.30;99.90
55064;DHT22;40963;52.168;21.296;2023-11-19T00:13:58;0.30;99.90
55064;DHT22;40963;52.168;21.296;2023-11-19T00:16:24;0.30;99.90
55064;DHT22;40963;52.168;21.296;2023-11-19T00:18:50;0.30;99.90
55064;DHT22;40963;52.168;21.296;2023-11-19T00:21:15;0.30;99.90
55064;DHT22;40963;52.168;21.296;2023-11-19T00:23:41;0.30;99.90
55064;DHT22;40963;52.168;21.296;2023-11-19T00:26:07;0.30;99.90
55064;DHT22;40963;52.168;21.296;2023-11-19T00:28:33;0.30;99.90
55064;DHT22;40963;52.168;21.296;2023-11-19T00:30:59;0.30;99.90
55064;DHT22;40963;52.168;21.296;2023-11-19T00:33:24;0.30;99.90
55064;DHT22;40963;52.168;21.296;2023-11-19T00:35:50;0.30;99.90
55064;DHT22;40963;52.168;21.296;2023-11-19T00:38:16;0.30;99.90
55064;DHT22;40963;52.168;21.296;2023-11-19T00:40:41;0.30;99.90
55064;DHT22;40963;52.168;21.296;2023-11-19T00:43:07;0.30;99.90
55064;DHT22;40963;52.168;21.296;2023-11-19T00:45:33;0.30;99.90
55064;DHT22;40963;52.168;21.296;2023-11-19T00:47:58;0.30;99.90
55064;DHT22;40963;52.168;21.296;2023-11-19T00:50:25;0.30;99.90
55064;DHT22;40963;52.168;21.296;2023-11-19T00:52:51;0.30;99.90
55064;DHT22;40963;52.168;21.296;2023-11-19T00:55:16;0.30;99.90
55064;DHT22;40963;52.168;21.296;2023-11-19T00:57:43;0.30;99.90
55064;DHT22;40963;52.168;21.296;2023-11-19T01:00:09;0.30;99.90
55064;DHT22;40963;52.168;21.296;2023-11-19T01:02:44;0.30;99.90
55064;DHT22;40963;52.168;21.296;2023-11-19T01:05:09;0.30;99.90
55064;DHT22;40963;52.168;21.296;2023-11-19T01:07:35;0.30;99.90
55064;DHT22;40963;52.168;21.296;2023-11-19T01:10:00;0.30;99.90
55064;DHT22;40963;52.168;21.296;2023-11-19T01:12:26;0.30;99.90
55064;DHT22;40963;52.168;21.296;2023-11-19T01:14:52;0.30;99.90
55064;DHT22;40963;52.168;21.296;2023-11-19T01:17:17;0.30;99.90
55064;DHT22;40963;52.168;21.296;2023-11-19T01:19:43;0.30;99.90
55064;DHT22;40963;52.168;21.296;2023-11-19T01:22:08;0.30;99.90
55064;DHT22;40963;52.168;21.296;2023-11-19T01:24:34;0.30;99.90
55064;DHT22;40963;52.168;21.296;2023-11-19T01:26:59;0.40;99.90
55064;DHT22;40963;52.168;21.296;2023-11-19T01:29:25;0.40;99.90
55064;DHT22;40963;52.168;21.296;2023-11-19T01:31:51;0.40;99.90
55064;DHT22;40963;52.168;21.296;2023-11-19T01:34:17;0.40;99.90
55064;DHT22;40963;52.168;21.296;2023-11-19T01:36:42;0.40;99.90
55064;DHT22;40963;52.168;21.296;2023-11-19T01:39:08;0.30;99.90
55064;DHT22;40963;52.168;21.296;2023-11-19T01:41:35;0.30;99.90
55064;DHT22;40963;52.168;21.296;2023-11-19T01:44:01;0.30;99.90
55064;DHT22;40963;52.168;21.296;2023-11-19T01:46:27;0.40;99.90
55064;DHT22;40963;52.168;21.296;2023-11-19T01:48:52;0.40;99.90
55064;DHT22;40963;52.168;21.296;2023-11-19T01:51:19;0.40;99.90
55064;DHT22;40963;52.168;21.296;2023-11-19T01:53:46;0.40;99.90
55064;DHT22;40963;52.168;21.296;2023-11-19T01:56:13;0.40;99.90
55064;DHT22;40963;52.168;21.296;2023-11-19T01:58:41;0.40;99.90
55064;DHT22;40963;52.168;21.296;2023-11-19T02:01:07;0.40;99.90
55064;DHT22;40963;52.168;21.296;2023-11-19T02:03:33;0.40;99.90
55064;DHT22;40963;52.168;21.296;2023-11-19T02:06:02;0.40;99.90
55064;DHT22;40963;52.168;21.296;2023-11-19T02:08:29;0.40;99.90
55064;DHT22;40963;52.168;21.296;2023-11-19T02:10:55;0.40;99.90
55064;DHT22;40963;52.168;21.296;2023-11-19T02:13:26;0.50;99.90
55064;DHT22;40963;52.168;21.296;2023-11-19T02:15:52;0.50;99.90
55064;DHT22;40963;52.168;21.296;2023-11-19T02:20:44;0.50;99.90
55064;DHT22;40963;52.168;21.296;2023-11-19T02:23:09;0.50;99.90
55064;DHT22;40963;52.168;21.296;2023-11-19T02:25:35;0.40;99.90
55064;DHT22;40963;52.168;21.296;2023-11-19T02:28:02;0.40;99.90
55064;DHT22;40963;52.168;21.296;2023-11-19T02:30:28;0.40;99.90
55064;DHT22;40963;52.168;21.296;2023-11-19T02:32:58;0.40;99.90
55064;DHT22;40963;52.168;21.296;2023-11-19T02:35:26;0.50;99.90
55064;DHT22;40963;52.168;21.296;2023-11-19T02:37:52;0.40;99.90
55064;DHT22;40963;52.168;21.296;2023-11-19T02:40:17;0.40;99.90
55064;DHT22;40963;52.168;21.296;2023-11-19T02:42:43;0.40;99.90
55064;DHT22;40963;52.168;21.296;2023-11-19T02:45:09;0.40;99.90
55064;DHT22;40963;52.168;21.296;2023-11-19T02:47:40;0.50;99.90
55064;DHT22;40963;52.168;21.296;2023-11-19T02:50:08;0.50;99.90
55064;DHT22;40963;52.168;21.296;2023-11-19T02:52:40;0.50;99.90
55064;DHT22;40963;52.168;21.296;2023-11-19T02:55:06;0.50;99.90
55064;DHT22;40963;52.168;21.296;2023-11-19T02:57:35;0.50;99.90
55064;DHT22;40963;52.168;21.296;2023-11-19T03:00:01;0.50;99.90
55064;DHT22;40963;52.168;21.296;2023-11-19T03:02:32;0.50;99.90
55064;DHT22;40963;52.168;21.296;2023-11-19T03:05:09;0.50;99.90
55064;DHT22;40963;52.168;21.296;2023-11-19T03:07:34;0.50;99.90
55064;DHT22;40963;52.168;21.296;2023-11-19T03:10:00;0.50;99.90
55064;DHT22;40963;52.168;21.296;2023-11-19T03:12:25;0.50;99.90
55064;DHT22;40963;52.168;21.296;2023-11-19T03:14:51;0.50;99.90
55064;DHT22;40963;52.168;21.296;2023-11-19T03:17:17;0.50;99.90
55064;DHT22;40963;52.168;21.296;2023-11-19T03:19:44;0.50;99.90
55064;DHT22;40963;52.168;21.296;2023-11-19T03:22:09;0.50;99.90
55064;DHT22;40963;52.168;21.296;2023-11-19T03:24:36;0.50;99.90
55064;DHT22;40963;52.168;21.296;2023-11-19T03:27:02;0.50;99.90
55064;DHT22;40963;52.168;21.296;2023-11-19T03:29:29;0.50;99.90
55064;DHT22;40963;52.168;21.296;2023-11-19T03:31:54;0.60;99.90
55064;DHT22;40963;52.168;21.296;2023-11-19T03:34:20;0.60;99.90
55064;DHT22;40963;52.168;21.296;2023-11-19T03:36:45;0.60;99.90
55064;DHT22;40963;52.168;21.296;2023-11-19T03:39:11;0.60;99.90
55064;DHT22;40963;52.168;21.296;2023-11-19T03:41:36;0.60;99.90
55064;DHT22;40963;52.168;21.296;2023-11-19T03:44:02;0.60;99.90
55064;DHT22;40963;52.168;21.296;2023-11-19T03:46:27;0.60;99.90
55064;DHT22;40963;52.168;21.296;2023-11-19T03:48:55;0.60;99.90
55064;DHT22;40963;52.168;21.296;2023-11-19T03:51:20;0.60;99.90
55064;DHT22;40963;52.168;21.296;2023-11-19T03:53:46;0.60;99.90
55064;DHT22;40963;52.168;21.296;2023-11-19T03:56:12;0.60;99.90
55064;DHT22;40963;52.168;21.296;2023-11-19T03:58:39;0.60;99.90
55064;DHT22;40963;52.168;21.296;2023-11-19T04:01:05;0.60;99.90
55064;DHT22;40963;52.168;21.296;2023-11-19T04:03:31;0.60;99.90
55064;DHT22;40963;52.168;21.296;2023-11-19T04:05:57;0.60;99.90
55064;DHT22;40963;52.168;21.296;2023-11-19T04:08:22;0.60;99.90
55064;DHT22;40963;52.168;21.296;2023-11-19T04:10:48;0.60;99.90
55064;DHT22;40963;52.168;21.296;2023-11-19T04:13:14;0.60;99.90
55064;DHT22;40963;52.168;21.296;2023-11-19T04:15:40;0.60;99.90
55064;DHT22;40963;52.168;21.296;2023-11-19T04:18:05;0.60;99.90
55064;DHT22;40963;52.168;21.296;2023-11-19T04:20:31;0.60;99.90
55064;DHT22;40963;52.168;21.296;2023-11-19T04:22:57;0.60;99.90
55064;DHT22;40963;52.168;21.296;2023-11-19T04:25:23;0.60;99.90
55064;DHT22;40963;52.168;21.296;2023-11-19T04:27:51;0.70;99.90
55064;DHT22;40963;52.168;21.296;2023-11-19T04:30:17;0.70;99.90
55064;DHT22;40963;52.168;21.296;2023-11-19T04:32:43;0.70;99.90
55064;DHT22;40963;52.168;21.296;2023-11-19T04:35:09;0.70;99.90
55064;DHT22;40963;52.168;21.296;2023-11-19T04:37:35;0.70;99.90
55064;DHT22;40963;52.168;21.296;2023-11-19T04:40:01;0.70;99.90
55064;DHT22;40963;52.168;21.296;2023-11-19T04:42:27;0.70;99.90
55064;DHT22;40963;52.168;21.296;2023-11-19T04:44:52;0.70;99.90
55064;DHT22;40963;52.168;21.296;2023-11-19T04:47:18;0.70;99.90
55064;DHT22;40963;52.168;21.296;2023-11-19T04:49:43;0.70;99.90
55064;DHT22;40963;52.168;21.296;2023-11-19T04:52:09;0.70;99.90
55064;DHT22;40963;52.168;21.296;2023-11-19T04:54:34;0.70;99.90
55064;DHT22;40963;52.168;21.296;2023-11-19T04:57:00;0.70;99.90
55064;DHT22;40963;52.168;21.296;2023-11-19T04:59:26;0.70;99.90
55064;DHT22;40963;52.168;21.296;2023-11-19T05:01:53;0.70;99.90
55064;DHT22;40963;52.168;21.296;2023-11-19T05:04:18;0.70;99.90
55064;DHT22;40963;52.168;21.296;2023-11-19T05:06:44;0.70;99.90
55064;DHT22;40963;52.168;21.296;2023-11-19T05:09:10;0.60;99.90
55064;DHT22;40963;52.168;21.296;2023-11-19T05:11:38;0.60;99.90
55064;DHT22;40963;52.168;21.296;2023-11-19T05:14:04;0.60;99.90
55064;DHT22;40963;52.168;21.296;2023-11-19T05:16:30;0.60;99.90
55064;DHT22;40963;52.168;21.296;2023-11-19T05:18:56;0.60;99.90
55064;DHT22;40963;52.168;21.296;2023-11-19T05:21:21;0.70;99.90
55064;DHT22;40963;52.168;21.296;2023-11-19T05:23:47;0.70;99.90
55064;DHT22;40963;52.168;21.296;2023-11-19T05:26:19;0.70;99.90
55064;DHT22;40963;52.168;21.296;2023-11-19T05:28:45;0.70;99.90
55064;DHT22;40963;52.168;21.296;2023-11-19T05:31:11;0.60;99.90
55064;DHT22;40963;52.168;21.296;2023-11-19T05:33:37;0.70;99.90
55064;DHT22;40963;52.168;21.296;2023-11-19T05:36:03;0.70;99.90
55064;DHT22;40963;52.168;21.296;2023-11-19T05:38:29;0.70;99.90
55064;DHT22;40963;52.168;21.296;2023-11-19T05:40:55;0.70;99.90
55064;DHT22;40963;52.168;21.296;2023-11-19T05:43:21;0.70;99.90
55064;DHT22;40963;52.168;21.296;2023-11-19T05:45:46;0.70;99.90
55064;DHT22;40963;52.168;21.296;2023-11-19T05:48:12;0.70;99.90
55064;DHT22;40963;52.168;21.296;2023-11-19T05:50:38;0.70;99.90
55064;DHT22;40963;52.168;21.296;2023-11-19T05:53:04;0.70;99.90
55064;DHT22;40963;52.168;21.296;2023-11-19T05:55:37;0.70;99.90
55064;DHT22;40963;52.168;21.296;2023-11-19T05:58:11;0.70;99.90
55064;DHT22;40963;52.168;21.296;2023-11-19T06:00:41;0.70;99.90
55064;DHT22;40963;52.168;21.296;2023-11-19T06:03:09;0.60;99.90
55064;DHT22;40963;52.168;21.296;2023-11-19T06:05:35;0.70;99.90
55064;DHT22;40963;52.168;21.296;2023-11-19T06:08:01;0.60;99.90
55064;DHT22;40963;52.168;21.296;2023-11-19T06:10:26;0.60;99.90
55064;DHT22;40963;52.168;21.296;2023-11-19T06:12:59;0.70;99.90
55064;DHT22;40963;52.168;21.296;2023-11-19T06:15:28;0.70;99.90
55064;DHT22;40963;52.168;21.296;2023-11-19T06:17:54;0.60;99.90
55064;DHT22;40963;52.168;21.296;2023-11-19T06:20:20;0.70;99.90
55064;DHT22;40963;52.168;21.296;2023-11-19T06:22:46;0.70;99.90
55064;DHT22;40963;52.168;21.296;2023-11-19T06:25:12;0.70;99.90
55064;DHT22;40963;52.168;21.296;2023-11-19T06:27:40;0.70;99.90
55064;DHT22;40963;52.168;21.296;2023-11-19T06:30:06;0.70;99.90
55064;DHT22;40963;52.168;21.296;2023-11-19T06:32:32;0.70;99.90
55064;DHT22;40963;52.168;21.296;2023-11-19T06:34:58;0.70;99.90
55064;DHT22;40963;52.168;21.296;2023-11-19T06:37:23;0.70;99.90
55064;DHT22;40963;52.168;21.296;2023-11-19T06:39:49;0.70;99.90
55064;DHT22;40963;52.168;21.296;2023-11-19T06:42:14;0.70;99.90
55064;DHT22;40963;52.168;21.296;2023-11-19T06:44:40;0.70;99.90
55064;DHT22;40963;52.168;21.296;2023-11-19T06:47:06;0.80;99.90
55064;DHT22;40963;52.168;21.296;2023-11-19T06:49:31;0.80;99.90
55064;DHT22;40963;52.168;21.296;2023-11-19T06:51:58;0.80;99.90
55064;DHT22;40963;52.168;21.296;2023-11-19T06:54:24;0.80;99.90
55064;DHT22;40963;52.168;21.296;2023-11-19T06:56:49;0.80;99.90
55064;DHT22;40963;52.168;21.296;2023-11-19T06:59:15;0.80;99.90
55064;DHT22;40963;52.168;21.296;2023-11-19T07:01:40;0.80;99.90
55064;DHT22;40963;52.168;21.296;2023-11-19T07:04:12;0.80;99.90
55064;DHT22;40963;52.168;21.296;2023-11-19T07:06:38;0.80;99.90
55064;DHT22;40963;52.168;21.296;2023-11-19T07:09:06;0.80;99.90
55064;DHT22;40963;52.168;21.296;2023-11-19T07:11:41;0.80;99.90
55064;DHT22;40963;52.168;21.296;2023-11-19T07:14:08;0.80;99.90
55064;DHT22;40963;52.168;21.296;2023-11-19T07:16:34;0.80;99.90
55064;DHT22;40963;52.168;21.296;2023-11-19T07:19:09;0.80;99.90
55064;DHT22;40963;52.168;21.296;2023-11-19T07:21:35;0.80;99.90
55064;DHT22;40963;52.168;21.296;2023-11-19T07:24:05;0.70;99.90
55064;DHT22;40963;52.168;21.296;2023-11-19T07:26:30;0.70;99.90
55064;DHT22;40963;52.168;21.296;2023-11-19T07:28:56;0.70;99.90
55064;DHT22;40963;52.168;21.296;2023-11-19T07:31:22;0.70;99.90
55064;DHT22;40963;52.168;21.296;2023-11-19T07:33:49;0.70;99.90
55064;DHT22;40963;52.168;21.296;2023-11-19T07:36:15;0.70;99.90
55064;DHT22;40963;52.168;21.296;2023-11-19T07:38:40;0.70;99.90
55064;DHT22;40963;52.168;21.296;2023-11-19T07:41:06;0.70;99.90
55064;DHT22;40963;52.168;21.296;2023-11-19T07:43:32;0.80;99.90
55064;DHT22;40963;52.168;21.296;2023-11-19T07:45:58;0.80;99.90
55064;DHT22;40963;52.168;21.296;2023-11-19T07:48:25;0.80;99.90
55064;DHT22;40963;52.168;21.296;2023-11-19T07:50:52;0.80;99.90
55064;DHT22;40963;52.168;21.296;2023-11-19T07:53:19;0.80;99.90
55064;DHT22;40963;52.168;21.296;2023-11-19T07:55:45;0.80;99.90
55064;DHT22;40963;52.168;21.296;2023-11-19T07:58:11;0.80;99.90
55064;DHT22;40963;52.168;21.296;2023-11-19T08:00:37;0.90;99.90
55064;DHT22;40963;52.168;21.296;2023-11-19T08:03:03;0.90;99.90
55064;DHT22;40963;52.168;21.296;2023-11-19T08:05:30;0.90;99.90
55064;DHT22;40963;52.168;21.296;2023-11-19T08:07:56;0.90;99.90
55064;DHT22;40963;52.168;21.296;2023-11-19T08:10:22;0.90;99.90
55064;DHT22;40963;52.168;21.296;2023-11-19T08:12:48;0.90;99.90
55064;DHT22;40963;52.168;21.296;2023-11-19T08:15:13;0.90;99.90
55064;DHT22;40963;52.168;21.296;2023-11-19T08:17:39;0.90;99.90
55064;DHT22;40963;52.168;21.296;2023-11-19T08:20:05;1.00;99.90
55064;DHT22;40963;52.168;21.296;2023-11-19T08:22:35;1.00;99.90
55064;DHT22;40963;52.168;21.296;2023-11-19T08:25:01;1.00;99.90
55064;DHT22;40963;52.168;21.296;2023-11-19T08:27:27;1.00;99.90
55064;DHT22;40963;52.168;21.296;2023-11-19T08:29:56;1.00;99.90
55064;DHT22;40963;52.168;21.296;2023-11-19T08:32:25;1.00;99.90
55064;DHT22;40963;52.168;21.296;2023-11-19T08:34:51;1.00;99.90
55064;DHT22;40963;52.168;21.296;2023-11-19T08:37:16;1.00;99.90
55064;DHT22;40963;52.168;21.296;2023-11-19T08:39:50;1.00;99.90
55064;DHT22;40963;52.168;21.296;2023-11-19T08:42:19;1.00;99.90
55064;DHT22;40963;52.168;21.296;2023-11-19T08:44:48;1.10;99.90
55064;DHT22;40963;52.168;21.296;2023-11-19T08:47:16;1.10;99.90
55064;DHT22;40963;52.168;21.296;2023-11-19T08:49:43;1.00;99.90
55064;DHT22;40963;52.168;21.296;2023-11-19T08:52:09;1.10;99.90
55064;DHT22;40963;52.168;21.296;2023-11-19T08:54:42;1.20;99.90
55064;DHT22;40963;52.168;21.296;2023-11-19T08:57:07;1.20;99.90
55064;DHT22;40963;52.168;21.296;2023-11-19T08:59:34;1.20;99.90
55064;DHT22;40963;52.168;21.296;2023-11-19T09:01:59;1.20;99.90
55064;DHT22;40963;52.168;21.296;2023-11-19T09:04:25;1.20;99.90
55064;DHT22;40963;52.168;21.296;2023-11-19T09:06:51;1.20;99.90
55064;DHT22;40963;52.168;21.296;2023-11-19T09:09:16;1.20;99.90
55064;DHT22;40963;52.168;21.296;2023-11-19T09:11:42;1.10;99.90
55064;DHT22;40963;52.168;21.296;2023-11-19T09:14:08;1.10;99.90
55064;DHT22;40963;52.168;21.296;2023-11-19T09:16:33;1.10;99.90
55064;DHT22;40963;52.168;21.296;2023-11-19T09:19:00;1.10;99.90
55064;DHT22;40963;52.168;21.296;2023-11-19T09:21:26;1.10;99.90
55064;DHT22;40963;52.168;21.296;2023-11-19T09:23:51;1.10;99.90
55064;DHT22;40963;52.168;21.296;2023-11-19T09:26:19;1.10;99.90
55064;DHT22;40963;52.168;21.296;2023-11-19T09:28:44;1.10;99.90
55064;DHT22;40963;52.168;21.296;2023-11-19T09:31:17;1.10;99.90
55064;DHT22;40963;52.168;21.296;2023-11-19T09:33:43;1.10;99.90
55064;DHT22;40963;52.168;21.296;2023-11-19T09:36:10;1.10;99.90
55064;DHT22;40963;52.168;21.296;2023-11-19T09:38:39;1.20;99.90
55064;DHT22;40963;52.168;21.296;2023-11-19T09:41:09;1.20;99.90
55064;DHT22;40963;52.168;21.296;2023-11-19T09:43:35;1.20;99.90
55064;DHT22;40963;52.168;21.296;2023-11-19T09:46:12;1.20;99.90
55064;DHT22;40963;52.168;21.296;2023-11-19T09:48:39;1.20;99.90
55064;DHT22;40963;52.168;21.296;2023-11-19T09:51:08;1.20;99.90
55064;DHT22;40963;52.168;21.296;2023-11-19T09:53:35;1.30;99.90
55064;DHT22;40963;52.168;21.296;2023-11-19T09:56:02;1.30;99.90
55064;DHT22;40963;52.168;21.296;2023-11-19T09:58:29;1.30;99.90
55064;DHT22;40963;52.168;21.296;2023-11-19T10:00:55;1.30;99.90
55064;DHT22;40963;52.168;21.296;2023-11-19T10:03:22;1.30;99.90
55064;DHT22;40963;52.168;21.296;2023-11-19T10:05:48;1.30;99.90
55064;DHT22;40963;52.168;21.296;2023-11-19T10:08:14;1.30;99.90
55064;DHT22;40963;52.168;21.296;2023-11-19T10:10:39;1.30;99.90
55064;DHT22;40963;52.168;21.296;2023-11-19T10:13:05;1.20;99.90
55064;DHT22;40963;52.168;21.296;2023-11-19T10:15:36;1.20;99.90
55064;DHT22;40963;52.168;21.296;2023-11-19T10:18:03;1.20;99.90
55064;DHT22;40963;52.168;21.296;2023-11-19T10:20:38;1.10;99.90
55064;DHT22;40963;52.168;21.296;2023-11-19T10:23:05;1.10;99.90
55064;DHT22;40963;52.168;21.296;2023-11-19T10:25:32;1.20;99.90
55064;DHT22;40963;52.168;21.296;2023-11-19T10:27:59;1.20;99.90
55064;DHT22;40963;52.168;21.296;2023-11-19T10:30:29;1.20;99.90
55064;DHT22;40963;52.168;21.296;2023-11-19T10:33:15;1.20;99.90
55064;DHT22;40963;52.168;21.296;2023-11-19T10:35:53;1.20;99.90
55064;DHT22;40963;52.168;21.296;2023-11-19T10:38:20;1.10;99.90
55064;DHT22;40963;52.168;21.296;2023-11-19T10:40:47;1.10;99.90
55064;DHT22;40963;52.168;21.296;2023-11-19T10:43:13;1.20;99.90
55064;DHT22;40963;52.168;21.296;2023-11-19T10:45:40;1.10;99.90
55064;DHT22;40963;52.168;21.296;2023-11-19T10:48:06;1.10;99.90
55064;DHT22;40963;52.168;21.296;2023-11-19T10:50:36;1.20;99.90
55064;DHT22;40963;52.168;21.296;2023-11-19T10:53:03;1.20;99.90
55064;DHT22;40963;52.168;21.296;2023-11-19T10:55:32;1.20;99.90
55064;DHT22;40963;52.168;21.296;2023-11-19T10:58:00;1.20;99.90
55064;DHT22;40963;52.168;21.296;2023-11-19T11:03:01;1.20;99.90
55064;DHT22;40963;52.168;21.296;2023-11-19T11:05:30;1.20;99.90
55064;DHT22;40963;52.168;21.296;2023-11-19T11:07:58;1.30;99.90
55064;DHT22;40963;52.168;21.296;2023-11-19T11:10:26;1.30;99.90
55064;DHT22;40963;52.168;21.296;2023-11-19T11:12:52;1.20;99.90
55064;DHT22;40963;52.168;21.296;2023-11-19T11:15:28;1.20;99.90
55064;DHT22;40963;52.168;21.296;2023-11-19T11:18:01;1.20;99.90
55064;DHT22;40963;52.168;21.296;2023-11-19T11:20:30;1.20;99.90
55064;DHT22;40963;52.168;21.296;2023-11-19T11:28:39;1.10;99.90
55064;DHT22;40963;52.168;21.296;2023-11-19T11:31:38;1.20;99.90
55064;DHT22;40963;52.168;21.296;2023-11-19T11:39:34;1.10;99.90
55064;DHT22;40963;52.168;21.296;2023-11-19T11:45:03;1.10;99.90
55064;DHT22;40963;52.168;21.296;2023-11-19T11:50:17;1.10;99.90
55064;DHT22;40963;52.168;21.296;2023-11-19T11:55:27;1.10;99.90
55064;DHT22;40963;52.168;21.296;2023-11-19T11:57:55;1.10;99.90
55064;DHT22;40963;52.168;21.296;2023-11-19T12:00:27;1.10;99.90
55064;DHT22;40963;52.168;21.296;2023-11-19T12:02:59;1.10;99.90
55064;DHT22;40963;52.168;21.296;2023-11-19T12:05:25;1.10;99.90
55064;DHT22;40963;52.168;21.296;2023-11-19T12:08:02;1.10;99.90
55064;DHT22;40963;52.168;21.296;2023-11-19T12:10:32;1.10;99.90
55064;DHT22;40963;52.168;21.296;2023-11-19T12:13:01;1.10;99.90
55064;DHT22;40963;52.168;21.296;2023-11-19T12:15:27;1.10;99.90
55064;DHT22;40963;52.168;21.296;2023-11-19T12:17:54;1.10;99.90
55064;DHT22;40963;52.168;21.296;2023-11-19T12:20:25;1.10;99.90
55064;DHT22;40963;52.168;21.296;2023-11-19T12:22:52;1.10;99.90
55064;DHT22;40963;52.168;21.296;2023-11-19T12:25:19;1.10;99.90
55064;DHT22;40963;52.168;21.296;2023-11-19T12:27:47;1.10;99.90
55064;DHT22;40963;52.168;21.296;2023-11-19T12:32:47;1.10;99.90
55064;DHT22;40963;52.168;21.296;2023-11-19T12:35:13;1.10;99.90
55064;DHT22;40963;52.168;21.296;2023-11-19T12:37:46;1.10;99.90
55064;DHT22;40963;52.168;21.296;2023-11-19T12:40:24;1.10;99.90
55064;DHT22;40963;52.168;21.296;2023-11-19T12:42:54;1.20;99.90
55064;DHT22;40963;52.168;21.296;2023-11-19T12:45:20;1.10;99.90
55064;DHT22;40963;52.168;21.296;2023-11-19T12:47:47;1.10;99.90
55064;DHT22;40963;52.168;21.296;2023-11-19T12:50:15;1.20;99.90
55064;DHT22;40963;52.168;21.296;2023-11-19T12:52:43;1.20;99.90
55064;DHT22;40963;52.168;21.296;2023-11-19T12:55:30;1.20;99.90
55064;DHT22;40963;52.168;21.296;2023-11-19T12:57:56;1.20;99.90
55064;DHT22;40963;52.168;21.296;2023-11-19T13:00:24;1.10;99.90
55064;DHT22;40963;52.168;21.296;2023-11-19T13:02:56;1.20;99.90
55064;DHT22;40963;52.168;21.296;2023-11-19T13:05:22;1.10;99.90
55064;DHT22;40963;52.168;21.296;2023-11-19T13:07:48;1.20;99.90
55064;DHT22;40963;52.168;21.296;2023-11-19T13:10:14;1.20;99.90
55064;DHT22;40963;52.168;21.296;2023-11-19T13:12:40;1.10;99.90
55064;DHT22;40963;52.168;21.296;2023-11-19T13:15:06;1.10;99.90
55064;DHT22;40963;52.168;21.296;2023-11-19T13:17:32;1.20;99.90
55064;DHT22;40963;52.168;21.296;2023-11-19T13:19:57;1.10;99.90
55064;DHT22;40963;52.168;21.296;2023-11-19T13:22:23;1.10;99.90
55064;DHT22;40963;52.168;21.296;2023-11-19T13:24:49;1.10;99.90
55064;DHT22;40963;52.168;21.296;2023-11-19T13:27:15;1.10;99.90
55064;DHT22;40963;52.168;21.296;2023-11-19T13:29:40;1.10;99.90
55064;DHT22;40963;52.168;21.296;2023-11-19T13:32:06;1.10;99.90
55064;DHT22;40963;52.168;21.296;2023-11-19T13:34:34;1.10;99.90
55064;DHT22;40963;52.168;21.296;2023-11-19T13:37:00;1.10;99.90
55064;DHT22;40963;52.168;21.296;2023-11-19T13:39:26;1.10;99.90
55064;DHT22;40963;52.168;21.296;2023-11-19T13:41:52;1.10;99.90
55064;DHT22;40963;52.168;21.296;2023-11-19T13:44:17;1.10;99.90
55064;DHT22;40963;52.168;21.296;2023-11-19T13:46:46;1.10;99.90
55064;DHT22;40963;52.168;21.296;2023-11-19T13:49:12;1.10;99.90
55064;DHT22;40963;52.168;21.296;2023-11-19T13:51:38;1.10;99.90
55064;DHT22;40963;52.168;21.296;2023-11-19T13:54:03;1.00;99.90
55064;DHT22;40963;52.168;21.296;2023-11-19T13:56:29;1.00;99.90
55064;DHT22;40963;52.168;21.296;2023-11-19T13:58:54;1.10;99.90
55064;DHT22;40963;52.168;21.296;2023-11-19T14:01:20;1.10;99.90
55064;DHT22;40963;52.168;21.296;2023-11-19T14:03:46;1.00;99.90
55064;DHT22;40963;52.168;21.296;2023-11-19T14:06:11;1.00;99.90
55064;DHT22;40963;52.168;21.296;2023-11-19T14:08:38;1.00;99.90
55064;DHT22;40963;52.168;21.296;2023-11-19T14:11:04;1.00;99.90
55064;DHT22;40963;52.168;21.296;2023-11-19T14:13:30;1.00;99.90
55064;DHT22;40963;52.168;21.296;2023-11-19T14:15:56;1.00;99.90
55064;DHT22;40963;52.168;21.296;2023-11-19T14:18:21;1.00;99.90
55064;DHT22;40963;52.168;21.296;2023-11-19T14:20:48;1.00;99.90
55064;DHT22;40963;52.168;21.296;2023-11-19T14:23:13;1.00;99.90
55064;DHT22;40963;52.168;21.296;2023-11-19T14:25:39;1.00;99.90
55064;DHT22;40963;52.168;21.296;2023-11-19T14:28:05;1.00;99.90
55064;DHT22;40963;52.168;21.296;2023-11-19T14:30:31;0.90;99.90
55064;DHT22;40963;52.168;21.296;2023-11-19T14:32:56;0.90;99.90
55064;DHT22;40963;52.168;21.296;2023-11-19T14:35:22;0.90;99.90
55064;DHT22;40963;52.168;21.296;2023-11-19T14:37:48;0.90;99.90
55064;DHT22;40963;52.168;21.296;2023-11-19T14:40:14;0.90;99.90
55064;DHT22;40963;52.168;21.296;2023-11-19T14:42:39;0.90;99.90
55064;DHT22;40963;52.168;21.296;2023-11-19T14:45:06;0.90;99.90
55064;DHT22;40963;52.168;21.296;2023-11-19T14:47:32;0.90;99.90
55064;DHT22;40963;52.168;21.296;2023-11-19T14:49:58;0.90;99.90
55064;DHT22;40963;52.168;21.296;2023-11-19T14:52:23;0.90;99.90
55064;DHT22;40963;52.168;21.296;2023-11-19T14:54:49;0.90;99.90
55064;DHT22;40963;52.168;21.296;2023-11-19T14:57:16;0.90;99.90
55064;DHT22;40963;52.168;21.296;2023-11-19T14:59:42;0.90;99.90
55064;DHT22;40963;52.168;21.296;2023-11-19T15:02:07;0.90;99.90
55064;DHT22;40963;52.168;21.296;2023-11-19T15:04:33;0.90;99.90
55064;DHT22;40963;52.168;21.296;2023-11-19T15:07:00;0.90;99.90
55064;DHT22;40963;52.168;21.296;2023-11-19T15:09:26;0.90;99.90
55064;DHT22;40963;52.168;21.296;2023-11-19T15:11:55;0.90;99.90
55064;DHT22;40963;52.168;21.296;2023-11-19T15:14:20;0.90;99.90
55064;DHT22;40963;52.168;21.296;2023-11-19T15:16:47;0.90;99.90
55064;DHT22;40963;52.168;21.296;2023-11-19T15:19:13;0.90;99.90
55064;DHT22;40963;52.168;21.296;2023-11-19T15:21:40;0.90;99.90
55064;DHT22;40963;52.168;21.296;2023-11-19T15:24:06;0.90;99.90
55064;DHT22;40963;52.168;21.296;2023-11-19T15:26:35;0.90;99.90
55064;DHT22;40963;52.168;21.296;2023-11-19T15:29:04;0.90;99.90
55064;DHT22;40963;52.168;21.296;2023-11-19T15:31:31;0.90;99.90
55064;DHT22;40963;52.168;21.296;2023-11-19T15:33:56;0.90;99.90
55064;DHT22;40963;52.168;21.296;2023-11-19T15:36:22;0.90;99.90
55064;DHT22;40963;52.168;21.296;2023-11-19T15:38:48;0.90;99.90
55064;DHT22;40963;52.168;21.296;2023-11-19T15:41:14;0.90;99.90
55064;DHT22;40963;52.168;21.296;2023-11-19T15:43:39;0.90;99.90
55064;DHT22;40963;52.168;21.296;2023-11-19T15:46:06;0.90;99.90
55064;DHT22;40963;52.168;21.296;2023-11-19T15:48:32;0.90;99.90
55064;DHT22;40963;52.168;21.296;2023-11-19T15:50:58;0.90;99.90
55064;DHT22;40963;52.168;21.296;2023-11-19T15:53:24;0.90;99.90
55064;DHT22;40963;52.168;21.296;2023-11-19T15:55:49;0.90;99.90